createdAt,value
2018-07-17T00:01:17.441Z,48.10
2018-07-17T00:03:47.202Z,48.20
2018-07-17T00:06:16.982Z,48.20
2018-07-17T00:08:46.736Z,48.20
2018-07-17T00:11:16.520Z,48.10
2018-07-17T00:13:46.246Z,48.20
2018-07-17T00:16:16.130Z,48.10
2018-07-17T00:18:45.849Z,48.20
2018-07-17T00:21:15.601Z,48.10
2018-07-17T00:23:45.306Z,48.20
2018-07-17T00:26:15.085Z,48.20
2018-07-17T00:28:44.830Z,48.20
2018-07-17T00:31:14.551Z,48.20
2018-07-17T00:33:44.274Z,48.30
2018-07-17T00:36:14.122Z,48.20
2018-07-17T00:38:43.837Z,48.00
2018-07-17T00:41:13.619Z,48.20
2018-07-17T00:43:43.312Z,48.20
2018-07-17T00:46:13.065Z,48.20
2018-07-17T00:48:42.796Z,48.20
2018-07-17T00:51:12.478Z,48.30
2018-07-17T00:53:42.262Z,48.30
2018-07-17T00:56:11.999Z,48.20
2018-07-17T00:58:41.704Z,48.20
2018-07-17T01:01:10.404Z,48.40
2018-07-17T01:03:45.415Z,48.30
2018-07-17T01:06:20.153Z,48.30
2018-07-17T01:08:54.998Z,48.40
2018-07-17T01:11:29.846Z,48.40
2018-07-17T01:14:03.481Z,48.50
2018-07-17T01:16:33.434Z,48.40
2018-07-17T01:19:03.431Z,48.50
2018-07-17T01:21:33.349Z,48.50
2018-07-17T01:24:03.297Z,48.50
2018-07-17T01:26:33.268Z,48.50
2018-07-17T01:29:03.225Z,48.50
2018-07-17T01:31:33.342Z,48.50
2018-07-17T01:34:03.411Z,48.50
2018-07-17T01:36:33.338Z,48.60
2018-07-17T01:39:03.409Z,48.50
2018-07-17T01:41:33.390Z,48.50
2018-07-17T01:44:03.451Z,48.50
2018-07-17T01:46:33.473Z,48.50
2018-07-17T01:49:03.485Z,48.60
2018-07-17T01:51:33.545Z,48.50
2018-07-17T01:54:03.591Z,48.50
2018-07-17T01:56:33.578Z,48.50
2018-07-17T01:59:03.575Z,48.60
2018-07-17T02:01:33.604Z,48.50
2018-07-17T02:04:03.635Z,48.50
2018-07-17T02:06:33.629Z,48.50
2018-07-17T02:09:03.782Z,48.50
2018-07-17T02:11:33.820Z,48.50
2018-07-17T02:14:03.871Z,48.70
2018-07-17T02:16:33.882Z,48.60
2018-07-17T02:19:03.890Z,48.60
2018-07-17T02:21:33.878Z,48.50
2018-07-17T02:24:03.857Z,48.50
2018-07-17T02:26:33.831Z,48.50
2018-07-17T02:29:03.859Z,48.50
2018-07-17T02:31:33.857Z,48.60
2018-07-17T02:34:03.531Z,48.60
2018-07-17T02:36:33.291Z,48.50
2018-07-17T02:39:03.122Z,48.50
2018-07-17T02:41:32.806Z,48.50
2018-07-17T02:46:31.846Z,48.70
2018-07-17T02:49:01.593Z,48.50
2018-07-17T02:51:31.304Z,48.60
2018-07-17T02:54:01.063Z,48.50
2018-07-17T02:56:30.756Z,48.50
2018-07-17T02:59:00.470Z,48.60
2018-07-17T03:01:30.217Z,48.60
2018-07-17T03:04:00.060Z,48.50
2018-07-17T03:06:29.796Z,48.50
2018-07-17T03:08:59.544Z,48.50
2018-07-17T03:11:29.261Z,48.60
2018-07-17T03:13:58.995Z,48.50
2018-07-17T03:16:28.689Z,48.50
2018-07-17T03:18:58.483Z,48.50
2018-07-17T03:21:28.239Z,48.50
2018-07-17T03:23:58.022Z,48.60
2018-07-17T03:26:27.807Z,48.50
2018-07-17T03:28:57.576Z,48.50
2018-07-17T03:31:27.563Z,48.60
2018-07-17T03:33:57.575Z,48.60
2018-07-17T03:36:27.381Z,48.50
2018-07-17T03:38:57.218Z,48.50
2018-07-17T03:41:26.952Z,48.50
2018-07-17T03:43:56.727Z,48.50
2018-07-17T03:46:26.399Z,48.60
2018-07-17T03:48:56.176Z,48.50
2018-07-17T03:51:25.890Z,48.50
2018-07-17T03:53:55.647Z,49.00
2018-07-17T03:56:25.463Z,48.60
2018-07-17T03:58:55.287Z,48.60
2018-07-17T04:01:25.023Z,48.60
2018-07-17T04:03:54.904Z,48.50
2018-07-17T04:06:24.656Z,48.50
2018-07-17T04:08:54.382Z,49.30
2018-07-17T04:11:24.062Z,48.60
2018-07-17T04:13:53.845Z,48.60
2018-07-17T04:16:23.508Z,48.50
2018-07-17T04:18:53.920Z,48.60
2018-07-17T04:21:23.636Z,48.70
2018-07-17T04:26:22.616Z,48.80
2018-07-17T04:28:52.397Z,48.60
2018-07-17T04:31:21.229Z,48.50
2018-07-17T04:33:50.141Z,48.60
2018-07-17T04:36:18.986Z,48.50
2018-07-17T04:38:47.829Z,48.60
2018-07-17T04:41:16.693Z,48.50
2018-07-17T04:43:45.515Z,48.50
2018-07-17T04:46:15.212Z,48.60
2018-07-17T04:48:44.128Z,48.60
2018-07-17T04:51:12.991Z,48.60
2018-07-17T04:53:41.803Z,48.60
2018-07-17T04:56:10.683Z,48.50
2018-07-17T04:58:39.567Z,48.60
2018-07-17T05:01:08.648Z,48.60
2018-07-17T05:03:37.541Z,48.60
2018-07-17T05:06:06.398Z,48.60
2018-07-17T05:08:35.347Z,48.60
2018-07-17T05:11:04.241Z,48.60
2018-07-17T05:13:33.049Z,48.60
2018-07-17T05:16:01.867Z,48.60
2018-07-17T05:18:30.704Z,48.50
2018-07-17T05:20:59.570Z,48.50
2018-07-17T05:23:28.389Z,48.50
2018-07-17T05:25:57.308Z,48.60
2018-07-17T05:28:26.129Z,48.60
2018-07-17T05:30:54.955Z,48.50
2018-07-17T05:33:23.844Z,48.50
2018-07-17T05:35:52.685Z,48.50
2018-07-17T05:38:21.518Z,48.60
2018-07-17T05:40:50.398Z,48.60
2018-07-17T05:43:19.195Z,48.50
2018-07-17T05:45:48.033Z,48.50
2018-07-17T05:48:16.846Z,48.50
2018-07-17T05:50:45.670Z,48.50
2018-07-17T05:53:14.476Z,48.50
2018-07-17T05:55:43.275Z,48.50
2018-07-17T05:58:12.083Z,49.00
2018-07-17T06:00:40.957Z,49.40
2018-07-17T06:03:09.877Z,49.40
2018-07-17T06:05:38.725Z,50.50
2018-07-17T06:08:07.610Z,50.40
2018-07-17T06:10:36.439Z,50.80
2018-07-17T06:13:05.287Z,50.80
2018-07-17T06:15:34.111Z,50.60
2018-07-17T06:18:03.024Z,50.30
2018-07-17T06:23:00.350Z,51.10
2018-07-17T06:25:29.218Z,51.50
2018-07-17T06:27:58.022Z,51.80
2018-07-17T06:30:26.889Z,52.30
2018-07-17T06:32:55.714Z,52.60
2018-07-17T06:35:24.610Z,52.90
2018-07-17T06:37:53.421Z,53.20
2018-07-17T06:40:22.313Z,53.30
2018-07-17T06:42:51.162Z,53.40
2018-07-17T06:45:20.953Z,53.50
2018-07-17T06:47:49.788Z,53.70
2018-07-17T06:50:18.640Z,53.80
2018-07-17T06:52:47.495Z,53.60
2018-07-17T06:55:16.331Z,53.60
2018-07-17T06:57:45.169Z,53.60
2018-07-17T07:00:14.027Z,53.50
2018-07-17T07:02:42.883Z,53.20
2018-07-17T07:05:11.726Z,53.10
2018-07-17T07:07:41.053Z,53.00
2018-07-17T07:10:09.909Z,52.90
2018-07-17T07:12:38.748Z,52.60
2018-07-17T07:15:07.601Z,52.30
2018-07-17T07:17:36.437Z,52.20
2018-07-17T07:20:05.698Z,52.30
2018-07-17T07:22:34.566Z,52.10
2018-07-17T07:25:03.390Z,52.00
2018-07-17T07:27:32.224Z,52.40
2018-07-17T07:30:01.062Z,51.90
2018-07-17T07:32:29.913Z,51.60
2018-07-17T07:34:58.742Z,51.40
2018-07-17T07:37:27.672Z,51.20
2018-07-17T07:39:56.536Z,51.40
2018-07-17T07:42:25.404Z,51.20
2018-07-17T07:44:54.265Z,51.00
2018-07-17T07:47:23.123Z,51.00
2018-07-17T07:49:51.970Z,50.80
2018-07-17T07:52:20.819Z,50.70
2018-07-17T07:54:49.662Z,50.60
2018-07-17T07:57:18.509Z,50.50
2018-07-17T07:59:47.355Z,50.60
2018-07-17T08:02:16.203Z,50.60
2018-07-17T08:04:45.055Z,50.70
2018-07-17T08:07:13.949Z,50.60
2018-07-17T08:09:42.912Z,50.60
2018-07-17T08:12:11.889Z,50.70
2018-07-17T08:14:40.672Z,50.80
2018-07-17T08:17:09.542Z,50.80
2018-07-17T08:19:38.371Z,50.80
2018-07-17T08:22:07.238Z,50.20
2018-07-17T08:24:36.142Z,50.80
2018-07-17T08:27:05.027Z,50.80
2018-07-17T08:29:33.862Z,50.80
2018-07-17T08:32:02.734Z,50.80
2018-07-17T08:34:31.692Z,50.70
2018-07-17T08:37:00.572Z,50.80
2018-07-17T08:39:29.454Z,50.80
2018-07-17T08:41:58.305Z,50.80
2018-07-17T08:44:27.152Z,50.40
2018-07-17T08:46:56.007Z,50.80
2018-07-17T08:49:24.842Z,50.70
2018-07-17T08:51:53.718Z,50.70
2018-07-17T08:54:22.542Z,50.80
2018-07-17T08:56:51.411Z,50.70
2018-07-17T08:59:20.337Z,50.60
2018-07-17T09:01:49.200Z,50.70
2018-07-17T09:04:18.445Z,50.60
2018-07-17T09:06:47.310Z,50.70
2018-07-17T09:09:16.143Z,50.50
2018-07-17T09:11:44.959Z,50.70
2018-07-17T09:14:13.879Z,50.80
2018-07-17T09:16:42.733Z,50.70
2018-07-17T09:19:11.563Z,50.70
2018-07-17T09:21:40.556Z,50.70
2018-07-17T09:24:09.259Z,50.60
2018-07-17T09:26:38.082Z,50.70
2018-07-17T09:31:35.447Z,50.90
2018-07-17T09:34:04.258Z,50.70
2018-07-17T09:36:33.109Z,50.70
2018-07-17T09:39:01.998Z,50.70
2018-07-17T09:41:30.802Z,50.60
2018-07-17T09:44:01.470Z,50.60
2018-07-17T09:46:30.382Z,50.80
2018-07-17T09:48:59.348Z,50.70
2018-07-17T09:51:28.270Z,50.70
2018-07-17T09:53:57.142Z,50.80
2018-07-17T09:56:26.022Z,50.70
2018-07-17T09:58:54.886Z,50.70
2018-07-17T10:01:29.090Z,50.80
2018-07-17T10:03:57.970Z,50.70
2018-07-17T10:06:26.838Z,50.80
2018-07-17T10:08:55.715Z,51.30
2018-07-17T10:11:24.558Z,50.80
2018-07-17T10:13:53.447Z,50.70
2018-07-17T10:16:22.338Z,50.70
2018-07-17T10:18:51.194Z,50.70
2018-07-17T10:21:20.026Z,50.80
2018-07-17T10:23:48.957Z,50.70
2018-07-17T10:26:17.848Z,50.60
2018-07-17T10:28:46.759Z,50.60
2018-07-17T10:31:15.601Z,51.30
2018-07-17T10:33:44.470Z,50.50
2018-07-17T10:36:13.325Z,50.60
2018-07-17T10:38:42.200Z,50.60
2018-07-17T10:41:11.133Z,50.50
2018-07-17T10:43:40.058Z,50.50
2018-07-17T10:46:08.949Z,50.50
2018-07-17T10:48:37.786Z,50.50
2018-07-17T10:51:06.763Z,50.50
2018-07-17T10:53:35.622Z,50.40
2018-07-17T10:56:04.478Z,50.40
2018-07-17T10:58:33.342Z,50.40
2018-07-17T11:01:02.346Z,50.10
2018-07-17T11:03:31.114Z,49.90
2018-07-17T11:06:09.696Z,49.60
2018-07-17T11:08:41.174Z,49.70
2018-07-17T11:11:10.167Z,49.40
2018-07-17T11:13:39.052Z,49.30
2018-07-17T11:16:07.885Z,49.10
2018-07-17T11:18:36.761Z,49.10
2018-07-17T11:21:05.575Z,48.90
2018-07-17T11:23:34.466Z,49.10
2018-07-17T11:26:03.353Z,49.30
2018-07-17T11:28:32.236Z,49.20
2018-07-17T11:31:01.052Z,49.20
2018-07-17T11:33:29.906Z,49.20
2018-07-17T11:35:58.754Z,49.10
2018-07-17T11:38:27.621Z,49.20
2018-07-17T11:40:56.453Z,49.00
2018-07-17T11:43:27.464Z,49.00
2018-07-17T11:45:56.283Z,49.10
2018-07-17T11:48:26.534Z,49.00
2018-07-17T11:50:55.387Z,49.20
2018-07-17T11:53:24.295Z,49.10
2018-07-17T11:55:53.153Z,49.10
2018-07-17T11:58:22.051Z,49.10
2018-07-17T12:00:50.932Z,49.10
2018-07-17T12:03:19.791Z,49.00
2018-07-17T12:05:48.681Z,49.00
2018-07-17T12:10:45.964Z,48.90
2018-07-17T12:13:14.817Z,48.40
2018-07-17T12:15:43.644Z,48.20
2018-07-17T12:18:12.506Z,48.30
2018-07-17T12:20:41.430Z,48.00
2018-07-17T12:23:10.254Z,48.10
2018-07-17T12:25:39.087Z,48.00
2018-07-17T12:28:08.026Z,48.00
2018-07-17T12:30:36.816Z,48.00
2018-07-17T12:33:05.710Z,48.00
2018-07-17T12:35:34.545Z,48.00
2018-07-17T12:38:03.434Z,47.80
2018-07-17T12:40:32.299Z,47.90
2018-07-17T12:43:01.129Z,47.90
2018-07-17T12:45:29.981Z,48.00
2018-07-17T12:47:58.848Z,48.00
2018-07-17T12:50:27.679Z,48.20
2018-07-17T12:52:56.521Z,48.10
2018-07-17T12:55:25.380Z,48.30
2018-07-17T12:57:54.223Z,48.20
2018-07-17T13:00:23.070Z,48.40
2018-07-17T13:02:52.204Z,48.20
2018-07-17T13:05:21.034Z,48.30
2018-07-17T13:07:49.888Z,48.30
2018-07-17T13:10:18.723Z,48.30
2018-07-17T13:12:47.548Z,48.90
2018-07-17T13:15:16.438Z,48.20
2018-07-17T13:17:45.352Z,47.90
2018-07-17T13:20:14.165Z,47.80
2018-07-17T13:22:42.989Z,47.70
2018-07-17T13:25:11.820Z,47.60
2018-07-17T13:27:40.621Z,47.10
2018-07-17T13:30:09.590Z,47.00
2018-07-17T13:32:38.433Z,46.80
2018-07-17T13:35:07.307Z,46.70
2018-07-17T13:37:36.127Z,46.60
2018-07-17T13:40:05.008Z,46.50
2018-07-17T13:42:33.896Z,46.30
2018-07-17T13:45:02.972Z,46.30
2018-07-17T13:47:31.998Z,45.90
2018-07-17T13:50:01.007Z,45.70
2018-07-17T13:52:29.862Z,45.10
2018-07-17T13:54:58.711Z,45.20
2018-07-17T13:59:56.174Z,45.60
2018-07-17T14:02:25.064Z,44.50
2018-07-17T14:04:53.918Z,44.60
2018-07-17T14:07:22.778Z,44.50
2018-07-17T14:09:51.663Z,44.30
2018-07-17T14:12:20.556Z,44.20
2018-07-17T14:14:49.354Z,44.30
2018-07-17T14:17:18.250Z,44.00
2018-07-17T14:19:47.124Z,43.90
2018-07-17T14:22:15.960Z,43.60
2018-07-17T14:24:44.801Z,43.60
2018-07-17T14:27:13.634Z,43.40
2018-07-17T14:29:42.478Z,43.60
2018-07-17T14:32:11.389Z,43.10
2018-07-17T14:34:40.253Z,43.80
2018-07-17T14:37:09.105Z,43.10
2018-07-17T14:39:37.954Z,43.40
2018-07-17T14:42:07.135Z,43.30
2018-07-17T14:44:35.961Z,43.20
2018-07-17T14:47:04.804Z,43.40
2018-07-17T14:49:33.663Z,43.20
2018-07-17T14:52:02.519Z,43.20
2018-07-17T14:54:31.371Z,43.20
2018-07-17T14:57:00.187Z,43.00
2018-07-17T14:59:29.036Z,43.10
2018-07-17T15:01:57.880Z,42.80
2018-07-17T15:04:26.706Z,42.40
2018-07-17T15:06:55.521Z,42.40
2018-07-17T15:09:24.364Z,42.40
2018-07-17T15:11:53.223Z,42.50
2018-07-17T15:14:22.051Z,42.20
2018-07-17T15:16:50.907Z,42.40
2018-07-17T15:19:20.058Z,42.30
2018-07-17T15:21:48.911Z,42.70
2018-07-17T15:24:17.810Z,43.00
2018-07-17T15:26:46.650Z,42.50
2018-07-17T15:29:15.487Z,42.20
2018-07-17T15:31:44.319Z,42.60
2018-07-17T15:34:13.200Z,42.20
2018-07-17T15:36:42.104Z,42.40
2018-07-17T15:39:12.142Z,42.40
2018-07-17T15:41:41.009Z,42.60
2018-07-17T15:44:09.810Z,42.50
2018-07-17T15:46:38.645Z,42.50
2018-07-17T15:49:07.484Z,42.10
2018-07-17T15:51:36.358Z,42.10
2018-07-17T15:54:05.264Z,42.20
2018-07-17T15:56:34.163Z,42.30
2018-07-17T15:59:02.994Z,42.30
2018-07-17T16:01:31.951Z,42.20
2018-07-17T16:04:00.801Z,42.20
2018-07-17T16:06:29.759Z,42.20
2018-07-17T16:08:58.566Z,42.10
2018-07-17T16:11:27.423Z,42.20
2018-07-17T16:13:56.515Z,41.90
2018-07-17T16:16:25.159Z,41.90
2018-07-17T16:18:53.971Z,42.00
2018-07-17T16:21:22.801Z,42.10
2018-07-17T16:23:51.607Z,42.20
2018-07-17T16:26:20.544Z,42.20
2018-07-17T16:28:49.375Z,41.90
2018-07-17T16:31:18.184Z,42.20
2018-07-17T16:33:47.038Z,42.20
2018-07-17T16:36:15.853Z,42.10
2018-07-17T16:38:44.703Z,42.10
2018-07-17T16:41:13.506Z,42.20
2018-07-17T16:43:42.372Z,42.10
2018-07-17T16:46:11.222Z,42.00
2018-07-17T16:48:40.087Z,42.80
2018-07-17T16:51:08.912Z,42.80
2018-07-17T16:53:37.783Z,42.60
2018-07-17T16:56:06.633Z,43.00
2018-07-17T16:58:35.508Z,43.00
2018-07-17T17:01:04.369Z,42.90
2018-07-17T17:03:33.221Z,43.00
2018-07-17T17:06:02.077Z,43.00
2018-07-17T17:08:30.943Z,43.00
2018-07-17T17:10:59.780Z,43.20
2018-07-17T17:13:28.646Z,43.20
2018-07-17T17:15:57.474Z,42.80
2018-07-17T17:18:26.347Z,42.90
2018-07-17T17:20:55.228Z,42.80
2018-07-17T17:23:24.106Z,42.60
2018-07-17T17:25:52.939Z,42.60
2018-07-17T17:28:21.789Z,42.30
2018-07-17T17:30:50.613Z,41.90
2018-07-17T17:33:19.725Z,41.80
2018-07-17T17:35:48.891Z,41.60
2018-07-17T17:38:18.032Z,41.40
2018-07-17T17:40:47.117Z,41.40
2018-07-17T17:43:16.374Z,41.30
2018-07-17T17:45:45.453Z,41.10
2018-07-17T17:48:14.668Z,41.10
2018-07-17T17:50:43.818Z,41.10
2018-07-17T17:53:12.650Z,40.70
2018-07-17T17:55:41.482Z,40.60
2018-07-17T17:58:10.354Z,40.80
2018-07-17T18:00:39.175Z,40.70
2018-07-17T18:03:08.099Z,40.40
2018-07-17T18:05:36.946Z,39.90
2018-07-17T18:08:05.907Z,39.60
2018-07-17T18:10:34.743Z,39.50
2018-07-17T18:13:03.628Z,39.10
2018-07-17T18:15:32.478Z,38.60
2018-07-17T18:18:01.613Z,38.50
2018-07-17T18:20:30.452Z,38.70
2018-07-17T18:22:59.954Z,38.60
2018-07-17T18:25:28.831Z,38.90
2018-07-17T18:27:57.676Z,38.80
2018-07-17T18:30:26.533Z,39.00
2018-07-17T18:33:06.173Z,39.60
2018-07-17T18:35:44.533Z,39.20
2018-07-17T18:38:16.518Z,39.30
2018-07-17T18:40:45.715Z,39.50
2018-07-17T18:43:15.442Z,40.10
2018-07-17T18:45:45.100Z,40.00
2018-07-17T18:48:14.757Z,40.00
2018-07-17T18:50:44.126Z,40.10
2018-07-17T18:53:13.896Z,40.00
2018-07-17T18:55:43.540Z,39.90
2018-07-17T18:58:13.443Z,39.80
2018-07-17T19:00:43.147Z,39.80
2018-07-17T19:03:12.071Z,39.90
2018-07-17T19:05:40.910Z,40.10
2018-07-17T19:08:09.774Z,40.50
2018-07-17T19:10:38.595Z,39.80
2018-07-17T19:13:07.455Z,39.80
2018-07-17T19:15:36.339Z,40.00
2018-07-17T19:18:05.221Z,40.10
2018-07-17T19:20:34.106Z,40.00
2018-07-17T19:23:02.939Z,40.00
2018-07-17T19:25:31.754Z,40.20
2018-07-17T19:28:00.600Z,40.20
2018-07-17T19:30:29.443Z,40.60
2018-07-17T19:32:58.274Z,40.10
2018-07-17T19:35:27.136Z,40.20
2018-07-17T19:37:56.024Z,40.20
2018-07-17T19:40:24.892Z,40.00
2018-07-17T19:42:53.915Z,39.80
2018-07-17T19:45:22.768Z,40.40
2018-07-17T19:47:51.632Z,40.90
2018-07-17T19:50:20.464Z,41.20
2018-07-17T19:52:49.499Z,41.40
2018-07-17T19:55:18.294Z,42.30
2018-07-17T19:57:47.126Z,42.60
2018-07-17T20:00:17.466Z,42.50
2018-07-17T20:02:46.314Z,44.10
2018-07-17T20:05:15.188Z,44.00
2018-07-17T20:07:44.046Z,44.00
2018-07-17T20:10:13.167Z,44.30
2018-07-17T20:12:41.977Z,45.20
2018-07-17T20:15:11.064Z,45.10
2018-07-17T20:17:40.125Z,45.60
2018-07-17T20:20:09.994Z,45.70
2018-07-17T20:22:39.538Z,45.90
2018-07-17T20:25:08.399Z,45.90
2018-07-17T20:27:37.282Z,46.00
2018-07-17T20:30:09.769Z,46.10
2018-07-17T20:32:40.308Z,46.10
2018-07-17T20:35:11.041Z,45.50
2018-07-17T20:37:42.208Z,45.90
2018-07-17T20:40:13.265Z,45.90
2018-07-17T20:42:42.272Z,45.90
2018-07-17T20:45:12.710Z,45.80
2018-07-17T20:47:42.855Z,45.90
2018-07-17T20:50:12.065Z,45.10
2018-07-17T20:52:40.986Z,45.60
2018-07-17T20:55:09.777Z,45.60
2018-07-17T20:57:44.633Z,45.70
2018-07-17T21:00:14.469Z,46.20
2018-07-17T21:05:20.736Z,46.20
2018-07-17T21:07:50.509Z,46.20
2018-07-17T21:10:20.193Z,45.70
2018-07-17T21:12:49.843Z,45.90
2018-07-17T21:15:21.388Z,45.70
2018-07-17T21:17:51.050Z,45.50
2018-07-17T21:20:20.738Z,45.50
2018-07-17T21:22:50.488Z,45.80
2018-07-17T21:25:21.498Z,45.70
2018-07-17T21:27:51.398Z,45.80
2018-07-17T21:30:21.206Z,45.70
2018-07-17T21:32:51.773Z,45.90
2018-07-17T21:35:21.891Z,46.20
2018-07-17T21:37:52.185Z,46.70
2018-07-17T21:40:21.986Z,46.90
2018-07-17T21:42:51.711Z,46.30
2018-07-17T21:45:21.986Z,46.10
2018-07-17T21:47:51.612Z,46.70
2018-07-17T21:50:21.745Z,46.40
2018-07-17T21:52:59.382Z,46.30
2018-07-17T21:55:29.753Z,46.80
2018-07-17T21:58:01.771Z,46.60
2018-07-17T22:00:31.685Z,46.80
2018-07-17T22:03:01.973Z,46.60
2018-07-17T22:05:33.791Z,47.00
2018-07-17T22:08:05.491Z,47.00
2018-07-17T22:10:36.280Z,47.30
2018-07-17T22:13:07.128Z,46.40
2018-07-17T22:15:39.160Z,47.10
2018-07-17T22:18:10.046Z,47.00
2018-07-17T22:20:40.047Z,47.20
2018-07-17T22:23:10.076Z,47.20
2018-07-17T22:25:40.509Z,47.30
2018-07-17T22:28:11.624Z,47.30
2018-07-17T22:30:42.124Z,47.60
2018-07-17T22:33:12.047Z,47.50
2018-07-17T22:35:42.875Z,47.50
2018-07-17T22:38:13.095Z,47.60
2018-07-17T22:40:43.287Z,47.90
2018-07-17T22:43:14.122Z,47.70
2018-07-17T22:45:44.098Z,47.70
2018-07-17T22:48:14.073Z,47.60
2018-07-17T22:50:44.045Z,47.70
2018-07-17T22:53:13.972Z,47.80
2018-07-17T22:55:43.769Z,47.60
2018-07-17T22:58:13.589Z,47.70
2018-07-17T23:00:43.483Z,47.70
2018-07-17T23:03:13.306Z,47.80
2018-07-17T23:05:42.985Z,47.90
2018-07-17T23:08:12.904Z,47.70
2018-07-17T23:10:42.680Z,47.80
2018-07-17T23:13:14.628Z,48.00
2018-07-17T23:15:44.611Z,48.20
2018-07-17T23:18:16.944Z,48.00
2018-07-17T23:20:47.015Z,48.20
2018-07-17T23:23:17.114Z,48.00
2018-07-17T23:25:46.886Z,48.00
2018-07-17T23:28:16.794Z,48.00
2018-07-17T23:30:46.781Z,48.10
2018-07-17T23:33:16.564Z,48.10
2018-07-17T23:35:46.392Z,48.20
2018-07-17T23:38:16.155Z,48.40
2018-07-17T23:40:46.003Z,48.30
2018-07-17T23:43:15.759Z,48.30
2018-07-17T23:45:45.535Z,48.20
2018-07-17T23:48:15.216Z,48.50
2018-07-17T23:50:45.057Z,48.00
2018-07-17T23:53:14.775Z,48.10
2018-07-17T23:55:44.607Z,48.00
2018-07-17T23:58:14.335Z,47.80
